sensor_id;sensor_type;location;lat;lon;timestamp;pressure;altitude;pressure_sealevel;temperature;humidity
56825;BME280;42705;50.326;18.772;2023-12-20T00:02:08;97971.02;;;5.79;57.01
56825;BME280;42705;50.326;18.772;2023-12-20T00:07:29;97951.66;;;5.72;57.49
56825;BME280;42705;50.326;18.772;2023-12-20T00:12:51;97943.56;;;5.72;58.12
56825;BME280;42705;50.326;18.772;2023-12-20T00:18:13;97925.48;;;5.78;58.56
56825;BME280;42705;50.326;18.772;2023-12-20T00:23:35;97909.94;;;5.91;58.87
56825;BME280;42705;50.326;18.772;2023-12-20T00:28:57;97921.27;;;6.04;59.16
56825;BME280;42705;50.326;18.772;2023-12-20T00:34:19;97932.97;;;6.05;59.00
56825;BME280;42705;50.326;18.772;2023-12-20T00:39:41;97931.48;;;6.04;59.13
56825;BME280;42705;50.326;18.772;2023-12-20T00:45:03;97942.40;;;6.04;59.00
56825;BME280;42705;50.326;18.772;2023-12-20T00:50:26;97906.98;;;5.94;58.83
56825;BME280;42705;50.326;18.772;2023-12-20T00:55:48;97889.58;;;5.94;58.94
56825;BME280;42705;50.326;18.772;2023-12-20T01:01:10;97892.87;;;5.95;58.73
56825;BME280;42705;50.326;18.772;2023-12-20T01:06:32;97862.09;;;5.96;58.76
56825;BME280;42705;50.326;18.772;2023-12-20T01:11:54;97891.48;;;5.92;58.42
56825;BME280;42705;50.326;18.772;2023-12-20T01:17:15;97868.96;;;5.79;58.45
56825;BME280;42705;50.326;18.772;2023-12-20T01:22:38;97859.11;;;5.72;58.42
56825;BME280;42705;50.326;18.772;2023-12-20T01:27:59;97835.85;;;5.71;58.42
56825;BME280;42705;50.326;18.772;2023-12-20T01:33:21;97850.09;;;5.73;58.34
56825;BME280;42705;50.326;18.772;2023-12-20T01:38:43;97856.77;;;5.71;58.31
56825;BME280;42705;50.326;18.772;2023-12-20T01:44:05;97872.89;;;5.71;58.26
56825;BME280;42705;50.326;18.772;2023-12-20T01:49:27;97863.96;;;5.70;58.16
56825;BME280;42705;50.326;18.772;2023-12-20T01:54:50;97846.38;;;5.69;58.21
56825;BME280;42705;50.326;18.772;2023-12-20T02:00:12;97845.24;;;5.68;57.93
56825;BME280;42705;50.326;18.772;2023-12-20T02:05:36;97837.34;;;5.65;57.96
56825;BME280;42705;50.326;18.772;2023-12-20T02:10:59;97826.98;;;5.60;57.88
56825;BME280;42705;50.326;18.772;2023-12-20T02:16:22;97828.20;;;5.56;57.75
56825;BME280;42705;50.326;18.772;2023-12-20T02:21:44;97836.15;;;5.49;57.91
56825;BME280;42705;50.326;18.772;2023-12-20T02:27:06;97827.33;;;5.43;58.01
56825;BME280;42705;50.326;18.772;2023-12-20T02:32:29;97818.02;;;5.40;58.20
56825;BME280;42705;50.326;18.772;2023-12-20T02:37:51;97819.61;;;5.42;58.43
56825;BME280;42705;50.326;18.772;2023-12-20T02:43:13;97817.44;;;5.47;58.44
56825;BME280;42705;50.326;18.772;2023-12-20T02:48:35;97822.23;;;5.48;58.53
56825;BME280;42705;50.326;18.772;2023-12-20T02:53:57;97817.98;;;5.45;58.61
56825;BME280;42705;50.326;18.772;2023-12-20T02:59:19;97826.99;;;5.45;58.59
56825;BME280;42705;50.326;18.772;2023-12-20T03:04:41;97828.20;;;5.42;58.61
56825;BME280;42705;50.326;18.772;2023-12-20T03:10:04;97822.25;;;5.43;59.08
56825;BME280;42705;50.326;18.772;2023-12-20T03:15:26;97818.91;;;5.48;59.44
56825;BME280;42705;50.326;18.772;2023-12-20T03:20:48;97809.80;;;5.52;59.78
56825;BME280;42705;50.326;18.772;2023-12-20T03:26:12;97807.23;;;5.45;59.95
56825;BME280;42705;50.326;18.772;2023-12-20T03:31:34;97805.58;;;5.29;60.46
56825;BME280;42705;50.326;18.772;2023-12-20T03:36:56;97810.30;;;5.10;60.85
56825;BME280;42705;50.326;18.772;2023-12-20T03:42:17;97809.63;;;4.92;61.32
56825;BME280;42705;50.326;18.772;2023-12-20T03:47:39;97809.70;;;4.80;61.93
56825;BME280;42705;50.326;18.772;2023-12-20T03:53:01;97809.68;;;4.73;62.43
56825;BME280;42705;50.326;18.772;2023-12-20T03:58:23;97802.52;;;4.65;63.03
56825;BME280;42705;50.326;18.772;2023-12-20T04:03:45;97804.30;;;4.55;63.28
56825;BME280;42705;50.326;18.772;2023-12-20T04:09:07;97808.77;;;4.40;63.54
56825;BME280;42705;50.326;18.772;2023-12-20T04:14:30;97810.98;;;4.22;63.90
56825;BME280;42705;50.326;18.772;2023-12-20T04:19:53;97809.39;;;4.15;64.32
56825;BME280;42705;50.326;18.772;2023-12-20T04:25:15;97816.18;;;4.10;64.99
56825;BME280;42705;50.326;18.772;2023-12-20T04:30:37;97813.10;;;4.00;65.46
56825;BME280;42705;50.326;18.772;2023-12-20T04:35:59;97809.42;;;3.91;65.83
56825;BME280;42705;50.326;18.772;2023-12-20T04:41:22;97799.89;;;3.94;66.36
56825;BME280;42705;50.326;18.772;2023-12-20T04:46:44;97801.23;;;4.04;67.05
56825;BME280;42705;50.326;18.772;2023-12-20T04:52:06;97794.38;;;4.10;67.00
56825;BME280;42705;50.326;18.772;2023-12-20T04:57:28;97791.59;;;4.11;67.22
56825;BME280;42705;50.326;18.772;2023-12-20T05:02:50;97787.37;;;4.10;67.34
56825;BME280;42705;50.326;18.772;2023-12-20T05:08:12;97788.70;;;4.17;67.57
56825;BME280;42705;50.326;18.772;2023-12-20T05:13:34;97782.39;;;4.25;67.97
56825;BME280;42705;50.326;18.772;2023-12-20T05:18:56;97783.63;;;4.27;68.03
56825;BME280;42705;50.326;18.772;2023-12-20T05:24:18;97786.95;;;4.24;67.95
56825;BME280;42705;50.326;18.772;2023-12-20T05:29:40;97787.19;;;4.25;68.22
56825;BME280;42705;50.326;18.772;2023-12-20T05:35:02;97786.48;;;4.24;68.35
56825;BME280;42705;50.326;18.772;2023-12-20T05:40:24;97783.39;;;4.21;68.66
56825;BME280;42705;50.326;18.772;2023-12-20T05:45:46;97781.48;;;4.14;68.68
56825;BME280;42705;50.326;18.772;2023-12-20T05:51:11;97781.16;;;4.05;68.63
56825;BME280;42705;50.326;18.772;2023-12-20T05:56:33;97782.23;;;3.95;68.73
56825;BME280;42705;50.326;18.772;2023-12-20T06:01:55;97785.73;;;3.89;69.21
56825;BME280;42705;50.326;18.772;2023-12-20T06:07:16;97790.35;;;3.83;69.54
56825;BME280;42705;50.326;18.772;2023-12-20T06:12:38;97789.92;;;3.84;69.67
56825;BME280;42705;50.326;18.772;2023-12-20T06:18:00;97792.45;;;3.83;69.83
56825;BME280;42705;50.326;18.772;2023-12-20T06:23:22;97804.07;;;3.75;69.95
56825;BME280;42705;50.326;18.772;2023-12-20T06:28:44;97803.17;;;3.59;70.13
56825;BME280;42705;50.326;18.772;2023-12-20T06:34:06;97797.23;;;3.45;70.47
56825;BME280;42705;50.326;18.772;2023-12-20T06:39:27;97805.89;;;3.37;70.91
56825;BME280;42705;50.326;18.772;2023-12-20T06:44:51;97811.27;;;3.27;71.14
56825;BME280;42705;50.326;18.772;2023-12-20T06:50:13;97816.38;;;3.24;71.44
56825;BME280;42705;50.326;18.772;2023-12-20T06:55:35;97816.79;;;3.25;71.83
56825;BME280;42705;50.326;18.772;2023-12-20T07:00:57;97821.74;;;3.23;72.11
56825;BME280;42705;50.326;18.772;2023-12-20T07:06:19;97821.60;;;3.15;72.37
56825;BME280;42705;50.326;18.772;2023-12-20T07:11:42;97826.84;;;3.17;72.65
56825;BME280;42705;50.326;18.772;2023-12-20T07:17:04;97826.73;;;3.21;73.05
56825;BME280;42705;50.326;18.772;2023-12-20T07:22:26;97826.38;;;3.21;73.32
56825;BME280;42705;50.326;18.772;2023-12-20T07:27:48;97827.90;;;3.19;73.50
56825;BME280;42705;50.326;18.772;2023-12-20T07:33:09;97831.80;;;3.20;73.69
56825;BME280;42705;50.326;18.772;2023-12-20T07:38:33;97831.23;;;3.25;73.97
56825;BME280;42705;50.326;18.772;2023-12-20T07:43:56;97836.43;;;3.28;74.20
56825;BME280;42705;50.326;18.772;2023-12-20T07:49:19;97841.73;;;3.26;74.45
56825;BME280;42705;50.326;18.772;2023-12-20T07:54:41;97843.84;;;3.31;74.49
56825;BME280;42705;50.326;18.772;2023-12-20T08:00:03;97839.27;;;3.36;74.61
56825;BME280;42705;50.326;18.772;2023-12-20T08:05:26;97838.09;;;3.31;74.88
56825;BME280;42705;50.326;18.772;2023-12-20T08:10:48;97837.36;;;3.29;75.32
56825;BME280;42705;50.326;18.772;2023-12-20T08:16:10;97842.43;;;3.31;75.45
56825;BME280;42705;50.326;18.772;2023-12-20T08:21:35;97838.96;;;3.28;75.44
56825;BME280;42705;50.326;18.772;2023-12-20T08:26:57;97833.46;;;3.26;75.62
56825;BME280;42705;50.326;18.772;2023-12-20T08:32:20;97838.25;;;3.21;75.90
56825;BME280;42705;50.326;18.772;2023-12-20T08:37:41;97834.19;;;3.15;76.08
56825;BME280;42705;50.326;18.772;2023-12-20T08:43:03;97842.24;;;3.16;76.37
56825;BME280;42705;50.326;18.772;2023-12-20T08:48:25;97842.91;;;3.16;76.61
56825;BME280;42705;50.326;18.772;2023-12-20T08:53:47;97850.14;;;3.14;76.82
56825;BME280;42705;50.326;18.772;2023-12-20T08:59:09;97853.48;;;3.14;76.68
56825;BME280;42705;50.326;18.772;2023-12-20T09:04:31;97851.69;;;3.19;77.13
56825;BME280;42705;50.326;18.772;2023-12-20T09:09:53;97851.56;;;3.18;77.22
56825;BME280;42705;50.326;18.772;2023-12-20T09:15:15;97846.68;;;3.19;77.19
56825;BME280;42705;50.326;18.772;2023-12-20T09:20:37;97846.71;;;3.24;77.38
56825;BME280;42705;50.326;18.772;2023-12-20T09:25:59;97846.16;;;3.29;77.28
56825;BME280;42705;50.326;18.772;2023-12-20T09:31:21;97845.64;;;3.34;77.59
56825;BME280;42705;50.326;18.772;2023-12-20T09:36:44;97837.94;;;3.33;77.31
56825;BME280;42705;50.326;18.772;2023-12-20T09:42:11;97846.05;;;3.36;77.44
56825;BME280;42705;50.326;18.772;2023-12-20T09:47:35;97838.08;;;3.39;77.51
56825;BME280;42705;50.326;18.772;2023-12-20T09:52:58;97832.36;;;3.37;77.68
56825;BME280;42705;50.326;18.772;2023-12-20T09:58:22;97835.24;;;3.32;77.51
56825;BME280;42705;50.326;18.772;2023-12-20T10:03:44;97833.14;;;3.30;77.76
56825;BME280;42705;50.326;18.772;2023-12-20T10:09:06;97834.30;;;3.29;77.91
56825;BME280;42705;50.326;18.772;2023-12-20T10:14:28;97833.89;;;3.32;77.98
56825;BME280;42705;50.326;18.772;2023-12-20T10:19:52;97830.79;;;3.37;78.09
56825;BME280;42705;50.326;18.772;2023-12-20T10:25:14;97822.40;;;3.38;78.06
56825;BME280;42705;50.326;18.772;2023-12-20T10:30:39;97825.10;;;3.41;77.96
56825;BME280;42705;50.326;18.772;2023-12-20T10:36:01;97822.08;;;3.40;78.18
56825;BME280;42705;50.326;18.772;2023-12-20T10:41:28;97819.94;;;3.39;78.37
56825;BME280;42705;50.326;18.772;2023-12-20T10:46:50;97822.38;;;3.41;78.52
56825;BME280;42705;50.326;18.772;2023-12-20T10:52:19;97815.16;;;3.43;78.50
56825;BME280;42705;50.326;18.772;2023-12-20T10:57:45;97819.27;;;3.51;78.54
56825;BME280;42705;50.326;18.772;2023-12-20T11:03:13;97815.60;;;3.58;78.65
56825;BME280;42705;50.326;18.772;2023-12-20T11:08:46;97812.77;;;3.62;78.53
56825;BME280;42705;50.326;18.772;2023-12-20T11:14:19;97809.21;;;3.68;78.81
56825;BME280;42705;50.326;18.772;2023-12-20T11:25:20;97797.39;;;3.74;78.65
56825;BME280;42705;50.326;18.772;2023-12-20T11:30:46;97790.65;;;3.76;78.78
56825;BME280;42705;50.326;18.772;2023-12-20T11:36:15;97793.66;;;3.83;78.87
56825;BME280;42705;50.326;18.772;2023-12-20T11:41:40;97794.73;;;3.87;78.66
56825;BME280;42705;50.326;18.772;2023-12-20T11:47:01;97794.60;;;3.91;78.73
56825;BME280;42705;50.326;18.772;2023-12-20T11:52:23;97793.16;;;3.94;78.77
56825;BME280;42705;50.326;18.772;2023-12-20T11:57:45;97781.80;;;3.98;78.73
56825;BME280;42705;50.326;18.772;2023-12-20T12:03:08;97772.02;;;4.09;78.43
56825;BME280;42705;50.326;18.772;2023-12-20T12:08:30;97776.75;;;4.22;78.44
56825;BME280;42705;50.326;18.772;2023-12-20T12:13:52;97780.14;;;4.25;78.12
56825;BME280;42705;50.326;18.772;2023-12-20T12:19:21;97777.29;;;4.28;77.98
56825;BME280;42705;50.326;18.772;2023-12-20T12:24:44;97774.21;;;4.33;77.78
56825;BME280;42705;50.326;18.772;2023-12-20T12:30:06;97773.64;;;4.31;77.51
56825;BME280;42705;50.326;18.772;2023-12-20T12:35:29;97778.48;;;4.29;77.34
56825;BME280;42705;50.326;18.772;2023-12-20T12:40:50;97767.42;;;4.33;77.21
56825;BME280;42705;50.326;18.772;2023-12-20T12:46:14;97776.30;;;4.37;77.10
56825;BME280;42705;50.326;18.772;2023-12-20T12:51:36;97773.49;;;4.33;76.97
56825;BME280;42705;50.326;18.772;2023-12-20T12:56:58;97767.41;;;4.33;76.92
56825;BME280;42705;50.326;18.772;2023-12-20T13:02:20;97757.78;;;4.33;76.92
56825;BME280;42705;50.326;18.772;2023-12-20T13:07:42;97756.42;;;4.30;77.05
56825;BME280;42705;50.326;18.772;2023-12-20T13:13:06;97752.02;;;4.36;77.02
56825;BME280;42705;50.326;18.772;2023-12-20T13:18:28;97750.90;;;4.42;76.92
56825;BME280;42705;50.326;18.772;2023-12-20T13:23:50;97748.17;;;4.44;77.05
56825;BME280;42705;50.326;18.772;2023-12-20T13:29:12;97743.40;;;4.45;76.93
56825;BME280;42705;50.326;18.772;2023-12-20T13:34:34;97751.65;;;4.45;76.65
56825;BME280;42705;50.326;18.772;2023-12-20T13:39:56;97761.37;;;4.45;76.78
56825;BME280;42705;50.326;18.772;2023-12-20T13:45:18;97760.59;;;4.39;76.65
56825;BME280;42705;50.326;18.772;2023-12-20T13:50:40;97763.19;;;4.34;76.85
56825;BME280;42705;50.326;18.772;2023-12-20T13:56:02;97760.41;;;4.39;76.82
56825;BME280;42705;50.326;18.772;2023-12-20T14:01:24;97761.48;;;4.59;76.50
56825;BME280;42705;50.326;18.772;2023-12-20T14:06:46;97752.23;;;5.04;75.85
56825;BME280;42705;50.326;18.772;2023-12-20T14:12:08;97742.63;;;5.47;75.03
56825;BME280;42705;50.326;18.772;2023-12-20T14:17:30;97747.73;;;5.31;75.39
56825;BME280;42705;50.326;18.772;2023-12-20T14:22:53;97752.38;;;5.29;75.15
56825;BME280;42705;50.326;18.772;2023-12-20T14:28:16;97749.80;;;5.07;75.39
56825;BME280;42705;50.326;18.772;2023-12-20T14:33:39;97744.17;;;4.82;75.42
56825;BME280;42705;50.326;18.772;2023-12-20T14:39:01;97759.21;;;4.55;75.58
56825;BME280;42705;50.326;18.772;2023-12-20T14:44:24;97763.55;;;4.29;75.87
56825;BME280;42705;50.326;18.772;2023-12-20T14:49:46;97761.61;;;4.14;75.91
56825;BME280;42705;50.326;18.772;2023-12-20T14:55:09;97764.70;;;4.05;76.04
56825;BME280;42705;50.326;18.772;2023-12-20T15:00:32;97746.68;;;3.92;76.31
56825;BME280;42705;50.326;18.772;2023-12-20T15:05:55;97736.92;;;3.76;76.32
56825;BME280;42705;50.326;18.772;2023-12-20T15:11:20;97734.70;;;3.64;76.82
56825;BME280;42705;50.326;18.772;2023-12-20T15:16:42;97740.64;;;3.56;76.78
56825;BME280;42705;50.326;18.772;2023-12-20T15:22:04;97742.06;;;3.56;76.52
56825;BME280;42705;50.326;18.772;2023-12-20T15:27:26;97738.70;;;3.62;76.21
56825;BME280;42705;50.326;18.772;2023-12-20T15:32:48;97733.23;;;3.70;76.17
56825;BME280;42705;50.326;18.772;2023-12-20T15:38:10;97739.23;;;3.81;75.82
56825;BME280;42705;50.326;18.772;2023-12-20T15:43:31;97747.18;;;3.85;75.54
56825;BME280;42705;50.326;18.772;2023-12-20T15:48:53;97743.42;;;3.87;75.37
56825;BME280;42705;50.326;18.772;2023-12-20T15:54:16;97740.79;;;3.89;75.27
56825;BME280;42705;50.326;18.772;2023-12-20T15:59:38;97737.15;;;3.90;75.18
56825;BME280;42705;50.326;18.772;2023-12-20T16:05:00;97736.17;;;3.89;75.17
56825;BME280;42705;50.326;18.772;2023-12-20T16:10:22;97735.48;;;3.89;74.99
56825;BME280;42705;50.326;18.772;2023-12-20T16:15:44;97733.79;;;3.86;74.98
56825;BME280;42705;50.326;18.772;2023-12-20T16:21:05;97734.14;;;3.86;75.03
56825;BME280;42705;50.326;18.772;2023-12-20T16:26:27;97742.17;;;3.87;74.97
56825;BME280;42705;50.326;18.772;2023-12-20T16:31:50;97742.73;;;3.84;74.99
56825;BME280;42705;50.326;18.772;2023-12-20T16:37:11;97740.66;;;3.80;75.01
56825;BME280;42705;50.326;18.772;2023-12-20T16:42:34;97738.08;;;3.77;75.12
56825;BME280;42705;50.326;18.772;2023-12-20T16:47:56;97737.15;;;3.71;75.33
56825;BME280;42705;50.326;18.772;2023-12-20T16:53:17;97734.45;;;3.66;75.36
56825;BME280;42705;50.326;18.772;2023-12-20T16:58:39;97724.52;;;3.59;75.44
56825;BME280;42705;50.326;18.772;2023-12-20T17:04:02;97724.34;;;3.57;75.57
56825;BME280;42705;50.326;18.772;2023-12-20T17:09:24;97731.69;;;3.61;75.62
56825;BME280;42705;50.326;18.772;2023-12-20T17:14:47;97732.44;;;3.60;75.75
56825;BME280;42705;50.326;18.772;2023-12-20T17:20:09;97726.91;;;3.60;75.70
56825;BME280;42705;50.326;18.772;2023-12-20T17:25:31;97721.48;;;3.61;75.45
56825;BME280;42705;50.326;18.772;2023-12-20T17:30:53;97720.27;;;3.58;75.39
56825;BME280;42705;50.326;18.772;2023-12-20T17:36:15;97721.33;;;3.56;75.20
56825;BME280;42705;50.326;18.772;2023-12-20T17:41:38;97721.75;;;3.55;75.29
56825;BME280;42705;50.326;18.772;2023-12-20T17:47:00;97724.66;;;3.53;74.97
56825;BME280;42705;50.326;18.772;2023-12-20T17:52:22;97727.98;;;3.50;74.90
56825;BME280;42705;50.326;18.772;2023-12-20T17:57:44;97733.23;;;3.49;74.94
56825;BME280;42705;50.326;18.772;2023-12-20T18:03:07;97723.15;;;3.45;74.50
56825;BME280;42705;50.326;18.772;2023-12-20T18:08:29;97713.75;;;3.46;74.63
56825;BME280;42705;50.326;18.772;2023-12-20T18:13:51;97719.55;;;3.45;74.54
56825;BME280;42705;50.326;18.772;2023-12-20T18:19:13;97715.18;;;3.45;74.50
56825;BME280;42705;50.326;18.772;2023-12-20T18:24:39;97708.59;;;3.46;74.23
56825;BME280;42705;50.326;18.772;2023-12-20T18:30:01;97716.58;;;3.45;73.93
56825;BME280;42705;50.326;18.772;2023-12-20T18:35:27;97714.23;;;3.47;73.76
56825;BME280;42705;50.326;18.772;2023-12-20T18:40:49;97707.23;;;3.48;73.59
56825;BME280;42705;50.326;18.772;2023-12-20T18:46:11;97698.55;;;3.51;73.58
56825;BME280;42705;50.326;18.772;2023-12-20T18:51:34;97697.34;;;3.51;73.22
56825;BME280;42705;50.326;18.772;2023-12-20T18:56:56;97699.38;;;3.52;73.22
56825;BME280;42705;50.326;18.772;2023-12-20T19:02:18;97700.05;;;3.52;72.86
56825;BME280;42705;50.326;18.772;2023-12-20T19:07:42;97701.92;;;3.52;72.61
56825;BME280;42705;50.326;18.772;2023-12-20T19:13:04;97702.44;;;3.52;72.16
56825;BME280;42705;50.326;18.772;2023-12-20T19:18:29;97708.23;;;3.51;72.00
56825;BME280;42705;50.326;18.772;2023-12-20T19:23:51;97719.96;;;3.49;72.00
56825;BME280;42705;50.326;18.772;2023-12-20T19:29:13;97719.89;;;3.43;71.71
56825;BME280;42705;50.326;18.772;2023-12-20T19:34:35;97711.27;;;3.38;71.76
56825;BME280;42705;50.326;18.772;2023-12-20T19:39:57;97715.14;;;3.30;71.76
56825;BME280;42705;50.326;18.772;2023-12-20T19:45:20;97706.83;;;3.25;71.85
56825;BME280;42705;50.326;18.772;2023-12-20T19:50:42;97701.83;;;3.17;72.01
56825;BME280;42705;50.326;18.772;2023-12-20T19:56:04;97704.92;;;3.13;72.16
56825;BME280;42705;50.326;18.772;2023-12-20T20:01:26;97714.25;;;3.08;72.18
56825;BME280;42705;50.326;18.772;2023-12-20T20:06:48;97709.94;;;3.06;72.42
56825;BME280;42705;50.326;18.772;2023-12-20T20:12:13;97701.83;;;3.03;72.55
56825;BME280;42705;50.326;18.772;2023-12-20T20:17:36;97686.83;;;3.03;72.53
56825;BME280;42705;50.326;18.772;2023-12-20T20:22:59;97698.90;;;3.03;72.85
56825;BME280;42705;50.326;18.772;2023-12-20T20:28:24;97711.03;;;3.05;72.62
56825;BME280;42705;50.326;18.772;2023-12-20T20:33:50;97703.96;;;3.05;72.50
56825;BME280;42705;50.326;18.772;2023-12-20T20:39:12;97694.58;;;3.03;72.49
56825;BME280;42705;50.326;18.772;2023-12-20T20:44:35;97699.86;;;3.02;72.39
56825;BME280;42705;50.326;18.772;2023-12-20T20:49:57;97702.81;;;3.02;72.35
56825;BME280;42705;50.326;18.772;2023-12-20T20:55:20;97697.35;;;3.03;72.33
56825;BME280;42705;50.326;18.772;2023-12-20T21:00:42;97698.63;;;3.02;72.15
56825;BME280;42705;50.326;18.772;2023-12-20T21:06:05;97695.91;;;3.04;72.08
56825;BME280;42705;50.326;18.772;2023-12-20T21:11:29;97699.64;;;3.03;72.07
56825;BME280;42705;50.326;18.772;2023-12-20T21:16:51;97702.67;;;3.03;71.86
56825;BME280;42705;50.326;18.772;2023-12-20T21:22:14;97702.83;;;3.01;71.81
56825;BME280;42705;50.326;18.772;2023-12-20T21:27:37;97699.64;;;3.02;71.97
56825;BME280;42705;50.326;18.772;2023-12-20T21:33:01;97696.39;;;3.05;71.91
56825;BME280;42705;50.326;18.772;2023-12-20T21:38:23;97688.98;;;3.04;72.10
56825;BME280;42705;50.326;18.772;2023-12-20T21:43:46;97690.83;;;3.08;71.82
56825;BME280;42705;50.326;18.772;2023-12-20T21:49:08;97693.69;;;3.11;72.16
56825;BME280;42705;50.326;18.772;2023-12-20T21:54:30;97702.84;;;3.13;71.98
56825;BME280;42705;50.326;18.772;2023-12-20T21:59:53;97697.69;;;3.18;72.10
56825;BME280;42705;50.326;18.772;2023-12-20T22:05:22;97689.23;;;3.20;72.24
56825;BME280;42705;50.326;18.772;2023-12-20T22:10:50;97683.57;;;3.15;72.31
56825;BME280;42705;50.326;18.772;2023-12-20T22:16:11;97678.92;;;3.10;72.28
56825;BME280;42705;50.326;18.772;2023-12-20T22:21:36;97675.35;;;3.02;72.59
56825;BME280;42705;50.326;18.772;2023-12-20T22:26:58;97670.89;;;2.99;72.69
56825;BME280;42705;50.326;18.772;2023-12-20T22:32:22;97662.41;;;2.97;72.88
56825;BME280;42705;50.326;18.772;2023-12-20T22:37:45;97661.35;;;2.95;73.01
56825;BME280;42705;50.326;18.772;2023-12-20T22:43:07;97659.20;;;2.94;73.21
56825;BME280;42705;50.326;18.772;2023-12-20T22:48:29;97658.13;;;2.95;73.31
56825;BME280;42705;50.326;18.772;2023-12-20T22:53:51;97650.02;;;2.94;73.49
56825;BME280;42705;50.326;18.772;2023-12-20T22:59:18;97647.92;;;2.92;73.54
56825;BME280;42705;50.326;18.772;2023-12-20T23:04:40;97644.89;;;2.94;73.63
56825;BME280;42705;50.326;18.772;2023-12-20T23:10:04;97642.88;;;2.93;73.70
56825;BME280;42705;50.326;18.772;2023-12-20T23:15:26;97630.38;;;2.92;73.75
56825;BME280;42705;50.326;18.772;2023-12-20T23:20:49;97624.00;;;2.94;73.77
56825;BME280;42705;50.326;18.772;2023-12-20T23:26:11;97614.33;;;2.99;73.98
56825;BME280;42705;50.326;18.772;2023-12-20T23:31:33;97609.34;;;3.04;74.12
56825;BME280;42705;50.326;18.772;2023-12-20T23:36:55;97602.86;;;3.10;73.87
56825;BME280;42705;50.326;18.772;2023-12-20T23:42:17;97598.71;;;3.12;74.10
56825;BME280;42705;50.326;18.772;2023-12-20T23:47:39;97588.75;;;3.07;74.17
56825;BME280;42705;50.326;18.772;2023-12-20T23:53:01;97574.78;;;3.04;74.00
56825;BME280;42705;50.326;18.772;2023-12-20T23:58:26;97569.89;;;3.03;74.17
